sensor_id;sensor_type;location;lat;lon;timestamp;pressure;altitude;pressure_sealevel;temperature;humidity
84055;BME280;74141;51.504;7.122;2024-01-30T00:01:41;102190.31;;;8.20;89.09
84055;BME280;74141;51.504;7.122;2024-01-30T00:04:07;102193.84;;;8.14;88.81
84055;BME280;74141;51.504;7.122;2024-01-30T00:06:32;102196.59;;;7.96;89.23
84055;BME280;74141;51.504;7.122;2024-01-30T00:08:57;102198.34;;;7.93;89.95
84055;BME280;74141;51.504;7.122;2024-01-30T00:11:23;102195.72;;;7.91;90.13
84055;BME280;74141;51.504;7.122;2024-01-30T00:13:50;102192.22;;;7.94;90.64
84055;BME280;74141;51.504;7.122;2024-01-30T00:16:23;102198.28;;;8.00;89.43
84055;BME280;74141;51.504;7.122;2024-01-30T00:18:51;102180.81;;;7.98;90.05
84055;BME280;74141;51.504;7.122;2024-01-30T00:21:17;102178.25;;;7.86;90.21
84055;BME280;74141;51.504;7.122;2024-01-30T00:23:43;102184.34;;;7.94;89.67
84055;BME280;74141;51.504;7.122;2024-01-30T00:26:08;102179.16;;;7.83;90.10
84055;BME280;74141;51.504;7.122;2024-01-30T00:28:33;102183.50;;;7.86;89.92
84055;BME280;74141;51.504;7.122;2024-01-30T00:30:58;102176.56;;;7.74;90.81
84055;BME280;74141;51.504;7.122;2024-01-30T00:33:24;102176.59;;;7.71;90.59
84055;BME280;74141;51.504;7.122;2024-01-30T00:35:49;102173.91;;;7.83;90.48
84055;BME280;74141;51.504;7.122;2024-01-30T00:38:14;102165.94;;;8.03;89.32
84055;BME280;74141;51.504;7.122;2024-01-30T00:40:40;102171.19;;;8.03;89.34
84055;BME280;74141;51.504;7.122;2024-01-30T00:43:05;102169.44;;;7.96;89.48
84055;BME280;74141;51.504;7.122;2024-01-30T00:45:30;102169.47;;;7.93;89.14
84055;BME280;74141;51.504;7.122;2024-01-30T00:47:56;102171.13;;;8.15;88.48
84055;BME280;74141;51.504;7.122;2024-01-30T00:50:21;102162.34;;;8.22;87.89
84055;BME280;74141;51.504;7.122;2024-01-30T00:52:46;102161.53;;;8.05;88.51
84055;BME280;74141;51.504;7.122;2024-01-30T00:55:12;102165.09;;;7.96;89.79
84055;BME280;74141;51.504;7.122;2024-01-30T00:57:38;102173.84;;;7.98;89.05
84055;BME280;74141;51.504;7.122;2024-01-30T01:00:03;102173.75;;;8.12;88.79
84055;BME280;74141;51.504;7.122;2024-01-30T01:02:31;102164.94;;;8.19;88.64
84055;BME280;74141;51.504;7.122;2024-01-30T01:04:56;102167.59;;;8.14;88.14
84055;BME280;74141;51.504;7.122;2024-01-30T01:07:21;102169.34;;;8.17;88.29
84055;BME280;74141;51.504;7.122;2024-01-30T01:09:48;102162.41;;;8.04;88.64
84055;BME280;74141;51.504;7.122;2024-01-30T01:12:13;102165.13;;;7.92;89.47
84055;BME280;74141;51.504;7.122;2024-01-30T01:14:38;102166.81;;;8.00;89.02
84055;BME280;74141;51.504;7.122;2024-01-30T01:17:04;102166.78;;;8.05;88.82
84055;BME280;74141;51.504;7.122;2024-01-30T01:19:29;102164.97;;;8.14;88.00
84055;BME280;74141;51.504;7.122;2024-01-30T01:21:54;102169.38;;;8.11;88.54
84055;BME280;74141;51.504;7.122;2024-01-30T01:24:19;102160.66;;;8.06;87.96
84055;BME280;74141;51.504;7.122;2024-01-30T01:26:45;102165.03;;;8.04;89.03
84055;BME280;74141;51.504;7.122;2024-01-30T01:29:10;102165.00;;;8.11;88.33
84055;BME280;74141;51.504;7.122;2024-01-30T01:31:37;102160.75;;;7.94;88.95
84055;BME280;74141;51.504;7.122;2024-01-30T01:34:09;102164.19;;;7.96;89.11
84055;BME280;74141;51.504;7.122;2024-01-30T01:36:34;102164.06;;;8.26;87.48
84055;BME280;74141;51.504;7.122;2024-01-30T01:38:59;102164.16;;;8.05;88.02
84055;BME280;74141;51.504;7.122;2024-01-30T01:41:25;102160.72;;;7.97;88.41
84055;BME280;74141;51.504;7.122;2024-01-30T01:43:54;102166.88;;;7.88;89.42
84055;BME280;74141;51.504;7.122;2024-01-30T01:46:19;102167.78;;;7.83;89.28
84055;BME280;74141;51.504;7.122;2024-01-30T01:48:45;102158.09;;;7.97;88.91
84055;BME280;74141;51.504;7.122;2024-01-30T01:51:10;102158.09;;;7.98;88.48
84055;BME280;74141;51.504;7.122;2024-01-30T01:53:35;102159.00;;;7.88;88.78
84055;BME280;74141;51.504;7.122;2024-01-30T01:56:00;102161.63;;;7.85;89.20
84055;BME280;74141;51.504;7.122;2024-01-30T01:58:27;102155.53;;;7.86;88.79
84055;BME280;74141;51.504;7.122;2024-01-30T02:00:54;102151.22;;;7.78;89.48
84055;BME280;74141;51.504;7.122;2024-01-30T02:03:20;102148.63;;;7.73;89.50
84055;BME280;74141;51.504;7.122;2024-01-30T02:05:46;102150.44;;;7.55;90.19
84055;BME280;74141;51.504;7.122;2024-01-30T02:08:12;102152.13;;;7.66;89.85
84055;BME280;74141;51.504;7.122;2024-01-30T02:10:37;102153.91;;;7.58;90.28
84055;BME280;74141;51.504;7.122;2024-01-30T02:13:12;102143.44;;;7.57;90.31
84055;BME280;74141;51.504;7.122;2024-01-30T02:15:37;102145.19;;;7.52;90.58
84055;BME280;74141;51.504;7.122;2024-01-30T02:18:11;102144.38;;;7.42;90.87
84055;BME280;74141;51.504;7.122;2024-01-30T02:20:37;102136.53;;;7.36;91.09
84055;BME280;74141;51.504;7.122;2024-01-30T02:23:15;102133.03;;;7.36;91.62
84055;BME280;74141;51.504;7.122;2024-01-30T02:25:40;102133.03;;;7.36;91.43
84055;BME280;74141;51.504;7.122;2024-01-30T02:28:13;102131.28;;;7.42;90.43
84055;BME280;74141;51.504;7.122;2024-01-30T02:30:39;102133.03;;;7.39;91.00
84055;BME280;74141;51.504;7.122;2024-01-30T02:33:13;102132.03;;;7.61;89.87
84055;BME280;74141;51.504;7.122;2024-01-30T02:35:39;102134.72;;;7.46;90.06
84055;BME280;74141;51.504;7.122;2024-01-30T02:38:15;102129.53;;;7.37;91.25
84055;BME280;74141;51.504;7.122;2024-01-30T02:40:40;102126.84;;;7.53;90.77
84055;BME280;74141;51.504;7.122;2024-01-30T02:43:11;102126.81;;;7.56;90.19
84055;BME280;74141;51.504;7.122;2024-01-30T02:45:37;102122.50;;;7.45;90.72
84055;BME280;74141;51.504;7.122;2024-01-30T02:48:11;102121.66;;;7.34;91.11
84055;BME280;74141;51.504;7.122;2024-01-30T02:50:36;102118.25;;;7.21;91.65
84055;BME280;74141;51.504;7.122;2024-01-30T02:53:14;102110.38;;;7.23;91.95
84055;BME280;74141;51.504;7.122;2024-01-30T02:55:39;102108.53;;;7.43;91.08
84055;BME280;74141;51.504;7.122;2024-01-30T02:58:13;102102.44;;;7.39;90.98
84055;BME280;74141;51.504;7.122;2024-01-30T03:00:38;102104.09;;;7.55;90.52
84055;BME280;74141;51.504;7.122;2024-01-30T03:03:04;102100.66;;;7.41;90.68
84055;BME280;74141;51.504;7.122;2024-01-30T03:05:29;102098.91;;;7.49;90.15
84055;BME280;74141;51.504;7.122;2024-01-30T03:07:55;102096.22;;;7.61;90.54
84055;BME280;74141;51.504;7.122;2024-01-30T03:10:20;102095.38;;;7.52;90.24
84055;BME280;74141;51.504;7.122;2024-01-30T03:12:45;102100.66;;;7.43;90.18
84055;BME280;74141;51.504;7.122;2024-01-30T03:15:10;102093.63;;;7.54;90.55
84055;BME280;74141;51.504;7.122;2024-01-30T03:17:36;102091.00;;;7.57;90.51
84055;BME280;74141;51.504;7.122;2024-01-30T03:20:03;102091.00;;;7.57;90.66
84055;BME280;74141;51.504;7.122;2024-01-30T03:22:29;102086.50;;;7.75;89.35
84055;BME280;74141;51.504;7.122;2024-01-30T03:24:54;102083.81;;;7.83;89.08
84055;BME280;74141;51.504;7.122;2024-01-30T03:27:19;102082.13;;;7.79;88.81
84055;BME280;74141;51.504;7.122;2024-01-30T03:29:44;102088.03;;;8.08;87.97
84055;BME280;74141;51.504;7.122;2024-01-30T03:32:10;102082.09;;;7.82;88.36
84055;BME280;74141;51.504;7.122;2024-01-30T03:34:35;102084.63;;;7.94;88.06
84055;BME280;74141;51.504;7.122;2024-01-30T03:37:00;102080.28;;;7.87;89.08
84055;BME280;74141;51.504;7.122;2024-01-30T03:39:25;102083.88;;;7.77;89.45
84055;BME280;74141;51.504;7.122;2024-01-30T03:41:51;102084.75;;;7.76;89.00
84055;BME280;74141;51.504;7.122;2024-01-30T03:44:16;102084.81;;;7.68;89.69
84055;BME280;74141;51.504;7.122;2024-01-30T03:46:41;102080.47;;;7.63;89.95
84055;BME280;74141;51.504;7.122;2024-01-30T03:49:07;102083.16;;;7.52;90.56
84055;BME280;74141;51.504;7.122;2024-01-30T03:51:32;102083.19;;;7.45;90.76
84055;BME280;74141;51.504;7.122;2024-01-30T03:53:57;102076.09;;;7.57;90.78
84055;BME280;74141;51.504;7.122;2024-01-30T03:56:23;102069.03;;;7.71;90.17
84055;BME280;74141;51.504;7.122;2024-01-30T03:58:49;102071.72;;;7.64;90.03
84055;BME280;74141;51.504;7.122;2024-01-30T04:01:14;102074.28;;;7.70;89.74
84055;BME280;74141;51.504;7.122;2024-01-30T04:03:41;102072.59;;;7.61;89.71
84055;BME280;74141;51.504;7.122;2024-01-30T04:06:06;102066.38;;;7.76;89.14
84055;BME280;74141;51.504;7.122;2024-01-30T04:08:31;102066.41;;;7.73;89.68
84055;BME280;74141;51.504;7.122;2024-01-30T04:10:57;102068.06;;;7.87;89.08
84055;BME280;74141;51.504;7.122;2024-01-30T04:13:22;102057.63;;;7.77;89.42
84055;BME280;74141;51.504;7.122;2024-01-30T04:15:48;102054.09;;;7.84;89.05
84055;BME280;74141;51.504;7.122;2024-01-30T04:18:13;102052.31;;;7.89;88.67
84055;BME280;74141;51.504;7.122;2024-01-30T04:20:38;102053.16;;;7.94;88.54
84055;BME280;74141;51.504;7.122;2024-01-30T04:23:03;102055.91;;;7.73;89.39
84055;BME280;74141;51.504;7.122;2024-01-30T04:25:29;102049.00;;;7.60;89.35
84055;BME280;74141;51.504;7.122;2024-01-30T04:27:54;102048.16;;;7.53;89.63
84055;BME280;74141;51.504;7.122;2024-01-30T04:30:19;102051.72;;;7.46;90.28
84055;BME280;74141;51.504;7.122;2024-01-30T04:32:45;102045.59;;;7.43;91.32
84055;BME280;74141;51.504;7.122;2024-01-30T04:35:10;102042.88;;;7.62;90.38
84055;BME280;74141;51.504;7.122;2024-01-30T04:37:35;102049.03;;;7.54;90.61
84055;BME280;74141;51.504;7.122;2024-01-30T04:40:00;102038.59;;;7.48;90.08
84055;BME280;74141;51.504;7.122;2024-01-30T04:42:26;102042.09;;;7.47;91.17
84055;BME280;74141;51.504;7.122;2024-01-30T04:44:51;102048.19;;;7.50;90.42
84055;BME280;74141;51.504;7.122;2024-01-30T04:47:16;102049.03;;;7.54;90.38
84055;BME280;74141;51.504;7.122;2024-01-30T04:49:42;102047.25;;;7.56;91.08
84055;BME280;74141;51.504;7.122;2024-01-30T04:52:08;102041.84;;;7.83;89.15
84055;BME280;74141;51.504;7.122;2024-01-30T04:54:34;102048.75;;;7.93;88.85
84055;BME280;74141;51.504;7.122;2024-01-30T04:57:00;102042.69;;;7.89;89.12
84055;BME280;74141;51.504;7.122;2024-01-30T04:59:25;102050.63;;;7.82;88.51
84055;BME280;74141;51.504;7.122;2024-01-30T05:01:50;102048.97;;;7.69;90.16
84055;BME280;74141;51.504;7.122;2024-01-30T05:04:16;102045.50;;;7.61;90.68
84055;BME280;74141;51.504;7.122;2024-01-30T05:06:41;102048.09;;;7.64;89.93
84055;BME280;74141;51.504;7.122;2024-01-30T05:09:06;102038.47;;;7.69;89.95
84055;BME280;74141;51.504;7.122;2024-01-30T05:11:37;102041.56;;;8.19;87.49
84055;BME280;74141;51.504;7.122;2024-01-30T05:14:03;102046.81;;;8.19;87.26
84055;BME280;74141;51.504;7.122;2024-01-30T05:16:28;102045.97;;;8.15;88.43
84055;BME280;74141;51.504;7.122;2024-01-30T05:18:53;102041.56;;;8.25;87.41
84055;BME280;74141;51.504;7.122;2024-01-30T05:21:18;102035.41;;;8.21;86.85
84055;BME280;74141;51.504;7.122;2024-01-30T05:23:44;102040.56;;;8.38;86.96
84055;BME280;74141;51.504;7.122;2024-01-30T05:26:09;102040.69;;;8.23;87.17
84055;BME280;74141;51.504;7.122;2024-01-30T05:28:35;102041.56;;;8.19;87.62
84055;BME280;74141;51.504;7.122;2024-01-30T05:31:00;102033.44;;;8.46;86.34
84055;BME280;74141;51.504;7.122;2024-01-30T05:33:25;102041.44;;;8.37;86.29
84055;BME280;74141;51.504;7.122;2024-01-30T05:35:50;102036.00;;;8.55;85.63
84055;BME280;74141;51.504;7.122;2024-01-30T05:38:19;102035.28;;;8.40;86.99
84055;BME280;74141;51.504;7.122;2024-01-30T05:40:44;102037.03;;;8.39;87.30
84055;BME280;74141;51.504;7.122;2024-01-30T05:43:10;102033.16;;;8.76;84.81
84055;BME280;74141;51.504;7.122;2024-01-30T05:45:35;102034.03;;;8.77;85.13
84055;BME280;74141;51.504;7.122;2024-01-30T05:48:01;102029.69;;;8.74;85.23
84055;BME280;74141;51.504;7.122;2024-01-30T05:50:26;102037.69;;;8.62;85.27
84055;BME280;74141;51.504;7.122;2024-01-30T05:52:52;102030.69;;;8.58;85.76
84055;BME280;74141;51.504;7.122;2024-01-30T05:55:17;102034.25;;;8.56;86.45
84055;BME280;74141;51.504;7.122;2024-01-30T05:57:42;102033.25;;;8.67;86.43
84055;BME280;74141;51.504;7.122;2024-01-30T06:00:08;102032.56;;;8.50;86.70
84055;BME280;74141;51.504;7.122;2024-01-30T06:02:34;102028.16;;;8.51;86.55
84055;BME280;74141;51.504;7.122;2024-01-30T06:04:59;102035.16;;;8.55;86.35
84055;BME280;74141;51.504;7.122;2024-01-30T06:07:24;102034.28;;;8.53;86.49
84055;BME280;74141;51.504;7.122;2024-01-30T06:09:49;102030.69;;;8.58;86.70
84055;BME280;74141;51.504;7.122;2024-01-30T06:12:15;102022.78;;;8.61;85.46
84055;BME280;74141;51.504;7.122;2024-01-30T06:14:40;102030.78;;;8.49;86.57
84055;BME280;74141;51.504;7.122;2024-01-30T06:17:07;102036.91;;;8.53;86.35
84055;BME280;74141;51.504;7.122;2024-01-30T06:19:33;102038.78;;;8.43;87.37
84055;BME280;74141;51.504;7.122;2024-01-30T06:21:58;102029.25;;;8.30;87.53
84055;BME280;74141;51.504;7.122;2024-01-30T06:24:23;102034.56;;;8.22;87.90
84055;BME280;74141;51.504;7.122;2024-01-30T06:26:49;102041.53;;;8.28;87.85
84055;BME280;74141;51.504;7.122;2024-01-30T06:29:14;102038.06;;;8.23;87.81
84055;BME280;74141;51.504;7.122;2024-01-30T06:31:43;102033.69;;;8.20;88.50
84055;BME280;74141;51.504;7.122;2024-01-30T06:34:09;102032.81;;;8.20;87.54
84055;BME280;74141;51.504;7.122;2024-01-30T06:36:35;102041.59;;;8.16;88.53
84055;BME280;74141;51.504;7.122;2024-01-30T06:39:02;102043.31;;;8.17;88.07
84055;BME280;74141;51.504;7.122;2024-01-30T06:41:27;102030.16;;;8.26;88.39
84055;BME280;74141;51.504;7.122;2024-01-30T06:43:52;102035.38;;;8.31;87.94
84055;BME280;74141;51.504;7.122;2024-01-30T06:46:18;102030.06;;;8.37;87.98
84055;BME280;74141;51.504;7.122;2024-01-30T06:48:43;102025.47;;;8.55;87.23
84055;BME280;74141;51.504;7.122;2024-01-30T06:51:10;102030.75;;;8.55;86.61
84055;BME280;74141;51.504;7.122;2024-01-30T06:53:35;102025.50;;;8.54;87.31
84055;BME280;74141;51.504;7.122;2024-01-30T06:56:00;102025.47;;;8.55;87.09
84055;BME280;74141;51.504;7.122;2024-01-30T06:58:26;102021.88;;;8.68;87.19
84055;BME280;74141;51.504;7.122;2024-01-30T07:00:51;102023.59;;;8.69;86.11
84055;BME280;74141;51.504;7.122;2024-01-30T07:03:16;102033.25;;;8.67;86.85
84055;BME280;74141;51.504;7.122;2024-01-30T07:05:42;102040.25;;;8.70;85.66
84055;BME280;74141;51.504;7.122;2024-01-30T07:08:07;102034.22;;;8.57;87.51
84055;BME280;74141;51.504;7.122;2024-01-30T07:10:33;102044.81;;;8.50;87.07
84055;BME280;74141;51.504;7.122;2024-01-30T07:13:00;102041.22;;;8.58;87.49
84055;BME280;74141;51.504;7.122;2024-01-30T07:15:25;102038.50;;;8.67;86.93
84055;BME280;74141;51.504;7.122;2024-01-30T07:17:50;102046.28;;;8.76;85.92
84055;BME280;74141;51.504;7.122;2024-01-30T07:20:16;102044.56;;;8.75;87.04
84055;BME280;74141;51.504;7.122;2024-01-30T07:22:43;102055.97;;;8.74;86.58
84055;BME280;74141;51.504;7.122;2024-01-30T07:25:09;102061.97;;;8.82;85.52
84055;BME280;74141;51.504;7.122;2024-01-30T07:27:34;102063.00;;;8.71;86.31
84055;BME280;74141;51.504;7.122;2024-01-30T07:29:59;102060.41;;;8.66;86.91
84055;BME280;74141;51.504;7.122;2024-01-30T07:32:25;102062.97;;;8.74;86.42
84055;BME280;74141;51.504;7.122;2024-01-30T07:34:50;102059.31;;;8.87;86.55
84055;BME280;74141;51.504;7.122;2024-01-30T07:37:15;102053.91;;;8.99;86.05
84055;BME280;74141;51.504;7.122;2024-01-30T07:39:41;102050.28;;;9.07;85.58
84055;BME280;74141;51.504;7.122;2024-01-30T07:42:07;102049.38;;;9.11;84.71
84055;BME280;74141;51.504;7.122;2024-01-30T07:44:32;102056.28;;;9.21;85.77
84055;BME280;74141;51.504;7.122;2024-01-30T07:46:57;102062.22;;;9.34;84.12
84055;BME280;74141;51.504;7.122;2024-01-30T07:49:23;102059.47;;;9.44;84.71
84055;BME280;74141;51.504;7.122;2024-01-30T07:51:48;102054.06;;;9.53;83.11
84055;BME280;74141;51.504;7.122;2024-01-30T07:54:13;102050.63;;;9.48;83.71
84055;BME280;74141;51.504;7.122;2024-01-30T08:03:22;102076.97;;;9.45;84.69
84055;BME280;74141;51.504;7.122;2024-01-30T08:05:47;102075.97;;;9.57;83.92
84055;BME280;74141;51.504;7.122;2024-01-30T08:08:13;102077.47;;;9.73;82.90
84055;BME280;74141;51.504;7.122;2024-01-30T08:10:38;102078.25;;;9.79;83.78
84055;BME280;74141;51.504;7.122;2024-01-30T08:13:03;102078.09;;;9.90;83.07
84055;BME280;74141;51.504;7.122;2024-01-30T08:15:28;102077.06;;;9.98;82.65
84055;BME280;74141;51.504;7.122;2024-01-30T08:17:54;102081.44;;;10.02;82.48
84055;BME280;74141;51.504;7.122;2024-01-30T08:20:25;102086.63;;;10.05;82.88
84055;BME280;74141;51.504;7.122;2024-01-30T08:22:51;102082.13;;;10.13;81.46
84055;BME280;74141;51.504;7.122;2024-01-30T08:25:17;102075.03;;;10.18;81.82
84055;BME280;74141;51.504;7.122;2024-01-30T08:27:42;102079.41;;;10.19;82.04
84055;BME280;74141;51.504;7.122;2024-01-30T08:30:08;102081.09;;;10.25;81.82
84055;BME280;74141;51.504;7.122;2024-01-30T08:32:34;102087.97;;;10.34;80.89
84055;BME280;74141;51.504;7.122;2024-01-30T08:34:59;102081.72;;;10.39;80.91
84055;BME280;74141;51.504;7.122;2024-01-30T08:37:25;102086.94;;;10.42;81.29
84055;BME280;74141;51.504;7.122;2024-01-30T08:39:50;102081.69;;;10.41;81.86
84055;BME280;74141;51.504;7.122;2024-01-30T08:42:15;102085.25;;;10.40;81.08
84055;BME280;74141;51.504;7.122;2024-01-30T08:44:43;102083.31;;;10.48;80.40
84055;BME280;74141;51.504;7.122;2024-01-30T08:47:08;102085.78;;;10.58;79.92
84055;BME280;74141;51.504;7.122;2024-01-30T08:49:33;102083.97;;;10.62;80.44
84055;BME280;74141;51.504;7.122;2024-01-30T08:51:59;102083.03;;;10.64;80.26
84055;BME280;74141;51.504;7.122;2024-01-30T08:54:24;102088.22;;;10.69;80.32
84055;BME280;74141;51.504;7.122;2024-01-30T08:56:49;102090.75;;;10.75;79.99
84055;BME280;74141;51.504;7.122;2024-01-30T08:59:15;102103.91;;;10.76;79.60
84055;BME280;74141;51.504;7.122;2024-01-30T09:01:40;102101.19;;;10.81;79.56
84055;BME280;74141;51.504;7.122;2024-01-30T09:04:05;102096.75;;;10.84;79.36
84055;BME280;74141;51.504;7.122;2024-01-30T09:06:30;102100.13;;;10.89;79.33
84055;BME280;74141;51.504;7.122;2024-01-30T09:08:56;102098.28;;;10.94;78.46
84055;BME280;74141;51.504;7.122;2024-01-30T09:11:23;102100.91;;;10.96;79.42
84055;BME280;74141;51.504;7.122;2024-01-30T09:13:48;102106.13;;;10.99;79.38
84055;BME280;74141;51.504;7.122;2024-01-30T09:16:13;102106.94;;;11.01;78.53
84055;BME280;74141;51.504;7.122;2024-01-30T09:18:41;102109.47;;;11.07;78.50
84055;BME280;74141;51.504;7.122;2024-01-30T09:21:06;102111.19;;;11.09;78.34
84055;BME280;74141;51.504;7.122;2024-01-30T09:23:31;102124.38;;;11.09;78.28
84055;BME280;74141;51.504;7.122;2024-01-30T09:25:56;102127.84;;;11.11;78.61
84055;BME280;74141;51.504;7.122;2024-01-30T09:28:22;102134.72;;;11.18;77.95
84055;BME280;74141;51.504;7.122;2024-01-30T09:30:47;102136.41;;;11.24;77.61
84055;BME280;74141;51.504;7.122;2024-01-30T09:33:12;102132.03;;;11.21;78.40
84055;BME280;74141;51.504;7.122;2024-01-30T09:35:37;102132.91;;;11.22;78.11
84055;BME280;74141;51.504;7.122;2024-01-30T09:38:03;102128.53;;;11.21;78.39
84055;BME280;74141;51.504;7.122;2024-01-30T09:40:28;102122.25;;;11.28;77.63
84055;BME280;74141;51.504;7.122;2024-01-30T09:42:54;102125.56;;;11.37;77.82
84055;BME280;74141;51.504;7.122;2024-01-30T09:45:23;102117.47;;;11.46;77.81
84055;BME280;74141;51.504;7.122;2024-01-30T09:47:49;102126.09;;;11.54;76.65
84055;BME280;74141;51.504;7.122;2024-01-30T09:50:15;102120.72;;;11.59;76.83
84055;BME280;74141;51.504;7.122;2024-01-30T09:52:40;102117.06;;;11.66;76.44
84055;BME280;74141;51.504;7.122;2024-01-30T09:55:07;102116.78;;;11.78;75.97
84055;BME280;74141;51.504;7.122;2024-01-30T09:57:34;102113.91;;;11.88;75.87
84055;BME280;74141;51.504;7.122;2024-01-30T09:59:59;102114.44;;;12.04;75.07
84055;BME280;74141;51.504;7.122;2024-01-30T10:02:25;102114.94;;;12.19;74.84
84055;BME280;74141;51.504;7.122;2024-01-30T10:04:51;102120.75;;;12.35;73.96
84055;BME280;74141;51.504;7.122;2024-01-30T10:07:20;102116.97;;;12.45;74.18
84055;BME280;74141;51.504;7.122;2024-01-30T10:09:46;102113.38;;;12.48;73.50
84055;BME280;74141;51.504;7.122;2024-01-30T10:12:12;102122.66;;;12.64;73.14
84055;BME280;74141;51.504;7.122;2024-01-30T10:14:41;102125.66;;;12.84;72.49
84055;BME280;74141;51.504;7.122;2024-01-30T10:17:08;102119.69;;;13.09;71.91
84055;BME280;74141;51.504;7.122;2024-01-30T10:19:34;102103.38;;;13.24;70.18
84055;BME280;74141;51.504;7.122;2024-01-30T10:22:00;102113.00;;;13.28;69.68
84055;BME280;74141;51.504;7.122;2024-01-30T10:24:26;102113.78;;;13.30;69.31
84055;BME280;74141;51.504;7.122;2024-01-30T10:26:53;102106.03;;;13.24;69.82
84055;BME280;74141;51.504;7.122;2024-01-30T10:29:18;102110.44;;;13.25;70.74
84055;BME280;74141;51.504;7.122;2024-01-30T10:31:44;102111.31;;;13.24;69.87
84055;BME280;74141;51.504;7.122;2024-01-30T10:34:09;102109.41;;;13.29;70.45
84055;BME280;74141;51.504;7.122;2024-01-30T10:36:39;102105.56;;;13.41;68.75
84055;BME280;74141;51.504;7.122;2024-01-30T10:39:06;102122.09;;;13.49;69.05
84055;BME280;74141;51.504;7.122;2024-01-30T10:41:39;102121.75;;;13.59;68.28
84055;BME280;74141;51.504;7.122;2024-01-30T10:44:11;102120.16;;;13.54;69.11
84055;BME280;74141;51.504;7.122;2024-01-30T10:46:42;102125.81;;;13.72;68.52
84055;BME280;74141;51.504;7.122;2024-01-30T10:49:12;102121.72;;;13.61;68.92
84055;BME280;74141;51.504;7.122;2024-01-30T10:51:39;102112.91;;;13.60;68.68
84055;BME280;74141;51.504;7.122;2024-01-30T10:54:05;102130.22;;;13.72;69.36
84055;BME280;74141;51.504;7.122;2024-01-30T10:56:32;102131.22;;;13.68;68.72
84055;BME280;74141;51.504;7.122;2024-01-30T10:58:58;102122.19;;;13.75;68.69
84055;BME280;74141;51.504;7.122;2024-01-30T11:01:24;102122.81;;;13.83;68.23
84055;BME280;74141;51.504;7.122;2024-01-30T11:03:53;102130.91;;;13.78;68.33
84055;BME280;74141;51.504;7.122;2024-01-30T11:06:22;102127.44;;;13.76;68.99
84055;BME280;74141;51.504;7.122;2024-01-30T11:09:02;102115.03;;;13.78;68.91
84055;BME280;74141;51.504;7.122;2024-01-30T11:11:59;102111.81;;;13.67;68.74
84055;BME280;74141;51.504;7.122;2024-01-30T11:14:29;102115.34;;;13.68;68.74
84055;BME280;74141;51.504;7.122;2024-01-30T11:16:59;102126.66;;;13.73;69.56
84055;BME280;74141;51.504;7.122;2024-01-30T11:19:25;102119.03;;;13.91;69.64
84055;BME280;74141;51.504;7.122;2024-01-30T11:21:54;102110.97;;;13.94;68.33
84055;BME280;74141;51.504;7.122;2024-01-30T11:24:20;102124.94;;;13.99;68.53
84055;BME280;74141;51.504;7.122;2024-01-30T11:26:49;102125.91;;;13.97;68.92
84055;BME280;74141;51.504;7.122;2024-01-30T11:29:17;102128.28;;;14.06;69.02
84055;BME280;74141;51.504;7.122;2024-01-30T11:31:52;102121.19;;;14.06;68.72
84055;BME280;74141;51.504;7.122;2024-01-30T11:34:18;102119.63;;;13.99;68.48
84055;BME280;74141;51.504;7.122;2024-01-30T11:36:44;102128.31;;;14.04;69.16
84055;BME280;74141;51.504;7.122;2024-01-30T11:39:11;102126.88;;;13.94;69.59
84055;BME280;74141;51.504;7.122;2024-01-30T11:41:38;102138.50;;;13.89;69.40
84055;BME280;74141;51.504;7.122;2024-01-30T11:44:05;102136.13;;;13.81;69.77
84055;BME280;74141;51.504;7.122;2024-01-30T11:46:30;102134.81;;;13.65;70.78
84055;BME280;74141;51.504;7.122;2024-01-30T11:48:55;102148.31;;;13.58;70.80
84055;BME280;74141;51.504;7.122;2024-01-30T11:51:20;102134.28;;;13.54;71.55
84055;BME280;74141;51.504;7.122;2024-01-30T11:53:49;102146.69;;;13.52;71.71
84055;BME280;74141;51.504;7.122;2024-01-30T11:56:15;102147.59;;;13.51;71.16
84055;BME280;74141;51.504;7.122;2024-01-30T11:58:42;102131.91;;;13.45;71.83
84055;BME280;74141;51.504;7.122;2024-01-30T12:01:08;102137.16;;;13.47;71.52
84055;BME280;74141;51.504;7.122;2024-01-30T12:03:33;102146.06;;;13.44;72.30
84055;BME280;74141;51.504;7.122;2024-01-30T12:05:58;102138.91;;;13.46;72.34
84055;BME280;74141;51.504;7.122;2024-01-30T12:08:24;102143.31;;;13.47;72.19
84055;BME280;74141;51.504;7.122;2024-01-30T12:10:59;102137.19;;;13.45;72.36
84055;BME280;74141;51.504;7.122;2024-01-30T12:13:26;102124.22;;;13.36;73.56
84055;BME280;74141;51.504;7.122;2024-01-30T12:15:52;102141.16;;;13.31;73.75
84055;BME280;74141;51.504;7.122;2024-01-30T12:18:20;102142.81;;;13.33;73.19
84055;BME280;74141;51.504;7.122;2024-01-30T12:20:56;102135.91;;;13.29;73.92
84055;BME280;74141;51.504;7.122;2024-01-30T12:23:22;102140.22;;;13.32;73.54
84055;BME280;74141;51.504;7.122;2024-01-30T12:25:51;102125.38;;;13.26;74.05
84055;BME280;74141;51.504;7.122;2024-01-30T12:28:16;102137.03;;;13.21;74.24
84055;BME280;74141;51.504;7.122;2024-01-30T12:30:41;102141.16;;;13.31;73.79
84055;BME280;74141;51.504;7.122;2024-01-30T12:33:07;102152.38;;;13.39;73.33
84055;BME280;74141;51.504;7.122;2024-01-30T12:35:35;102143.28;;;13.49;73.68
84055;BME280;74141;51.504;7.122;2024-01-30T12:38:00;102136.94;;;13.54;73.91
84055;BME280;74141;51.504;7.122;2024-01-30T12:40:25;102136.84;;;13.57;73.22
84055;BME280;74141;51.504;7.122;2024-01-30T12:42:51;102143.09;;;13.55;73.89
84055;BME280;74141;51.504;7.122;2024-01-30T12:45:17;102140.50;;;13.53;74.00
84055;BME280;74141;51.504;7.122;2024-01-30T12:47:47;102141.72;;;13.40;74.36
84055;BME280;74141;51.504;7.122;2024-01-30T12:50:13;102140.72;;;13.46;74.77
84055;BME280;74141;51.504;7.122;2024-01-30T12:52:41;102131.22;;;13.37;74.25
84055;BME280;74141;51.504;7.122;2024-01-30T12:55:06;102140.94;;;13.38;74.29
84055;BME280;74141;51.504;7.122;2024-01-30T12:57:31;102128.75;;;13.31;74.57
84055;BME280;74141;51.504;7.122;2024-01-30T12:59:57;102128.00;;;13.28;75.09